createdAt,value
2023-02-27T00:02:18.419Z,18.61
2023-02-27T00:04:45.908Z,18.67
2023-02-27T00:07:12.430Z,18.64
2023-02-27T00:09:38.780Z,18.61
2023-02-27T00:12:07.506Z,18.53
2023-02-27T00:14:33.914Z,18.57
2023-02-27T00:17:00.317Z,18.54
2023-02-27T00:19:26.731Z,18.52
2023-02-27T00:21:53.039Z,18.48
2023-02-27T00:24:19.476Z,18.48
2023-02-27T00:26:46.024Z,18.43
2023-02-27T00:29:12.441Z,18.42
2023-02-27T00:31:39.208Z,18.39
2023-02-27T00:34:05.552Z,18.39
2023-02-27T00:36:32.060Z,18.34
2023-02-27T00:38:58.569Z,18.35
2023-02-27T00:41:25.457Z,18.32
2023-02-27T00:43:52.072Z,18.27
2023-02-27T00:46:18.839Z,18.23
2023-02-27T00:48:45.482Z,18.24
2023-02-27T00:51:11.869Z,18.17
2023-02-27T00:53:38.505Z,18.13
2023-02-27T00:56:05.271Z,18.12
2023-02-27T00:58:31.659Z,18.10
2023-02-27T01:00:58.112Z,18.07
2023-02-27T01:03:24.622Z,18.06
2023-02-27T01:05:51.105Z,18.06
2023-02-27T01:08:18.204Z,17.98
2023-02-27T01:10:44.544Z,18.01
2023-02-27T01:13:11.403Z,17.98
2023-02-27T01:15:37.831Z,17.97
2023-02-27T01:18:04.295Z,17.94
2023-02-27T01:20:30.794Z,17.96
2023-02-27T01:22:57.538Z,17.93
2023-02-27T01:25:24.047Z,17.93
2023-02-27T01:27:50.543Z,17.80
2023-02-27T01:30:17.051Z,17.78
2023-02-27T01:32:43.827Z,17.84
2023-02-27T01:35:10.844Z,17.72
2023-02-27T01:37:37.272Z,17.72
2023-02-27T01:40:03.762Z,17.73
2023-02-27T01:42:30.138Z,17.70
2023-02-27T01:44:56.588Z,17.69
2023-02-27T01:47:23.267Z,17.71
2023-02-27T01:49:49.664Z,17.66
2023-02-27T01:52:16.065Z,17.62
2023-02-27T01:54:42.494Z,17.66
2023-02-27T01:57:09.430Z,17.61
2023-02-27T01:59:36.192Z,17.59
2023-02-27T02:02:02.646Z,17.57
2023-02-27T02:04:29.721Z,17.55
2023-02-27T02:06:56.501Z,17.56
2023-02-27T02:09:23.134Z,17.42
2023-02-27T02:11:49.799Z,17.43
2023-02-27T02:14:16.235Z,17.48
2023-02-27T02:16:42.976Z,17.46
2023-02-27T02:19:09.939Z,17.46
2023-02-27T02:21:36.320Z,17.36
2023-02-27T02:24:02.682Z,17.40
2023-02-27T02:26:33.226Z,17.37
2023-02-27T02:28:59.941Z,17.35
2023-02-27T02:31:27.020Z,17.37
2023-02-27T02:33:53.849Z,17.31
2023-02-27T02:36:20.561Z,17.24
2023-02-27T02:38:47.086Z,17.26
2023-02-27T02:41:13.780Z,17.19
2023-02-27T02:43:40.198Z,17.28
2023-02-27T02:46:06.983Z,17.21
2023-02-27T02:48:33.508Z,17.16
2023-02-27T02:50:59.923Z,17.23
2023-02-27T02:53:31.065Z,17.24
2023-02-27T02:56:03.074Z,17.10
2023-02-27T02:58:29.453Z,17.21
2023-02-27T03:00:55.914Z,17.08
2023-02-27T03:03:23.136Z,17.15
2023-02-27T03:05:49.700Z,17.16
2023-02-27T03:08:16.533Z,17.15
2023-02-27T03:10:42.955Z,17.07
2023-02-27T03:13:09.427Z,17.10
2023-02-27T03:15:35.745Z,17.07
2023-02-27T03:18:02.183Z,17.08
2023-02-27T03:20:28.512Z,17.01
2023-02-27T03:22:55.046Z,17.03
2023-02-27T03:25:21.419Z,16.97
2023-02-27T03:27:47.816Z,17.05
2023-02-27T03:30:14.523Z,17.03
2023-02-27T03:32:40.861Z,16.99
2023-02-27T03:35:08.206Z,16.95
2023-02-27T03:37:34.937Z,16.97
2023-02-27T03:40:01.721Z,16.91
2023-02-27T03:42:28.422Z,16.91
2023-02-27T03:44:54.743Z,16.88
2023-02-27T03:47:21.405Z,16.85
2023-02-27T03:49:47.754Z,16.86
2023-02-27T03:52:14.128Z,16.83
2023-02-27T03:54:40.609Z,16.83
2023-02-27T03:57:07.168Z,16.75
2023-02-27T03:59:33.501Z,16.80
2023-02-27T04:01:59.839Z,16.81
2023-02-27T04:04:26.421Z,16.75
2023-02-27T04:06:52.756Z,16.76
2023-02-27T04:09:19.452Z,16.71
2023-02-27T04:11:45.851Z,16.71
2023-02-27T04:14:12.235Z,16.74
2023-02-27T04:16:38.738Z,16.73
2023-02-27T04:19:05.471Z,16.67
2023-02-27T04:21:31.998Z,16.66
2023-02-27T04:23:58.298Z,16.66
2023-02-27T04:26:24.662Z,16.64
2023-02-27T04:28:51.690Z,16.64
2023-02-27T04:31:18.420Z,16.55
2023-02-27T04:33:45.115Z,16.60
2023-02-27T04:36:13.102Z,16.59
2023-02-27T04:38:39.592Z,16.59
2023-02-27T04:41:05.997Z,16.59
2023-02-27T04:43:32.379Z,16.56
2023-02-27T04:45:59.312Z,16.55
2023-02-27T04:48:25.843Z,16.50
2023-02-27T04:50:52.218Z,16.47
2023-02-27T04:53:19.274Z,16.50
2023-02-27T04:55:45.706Z,16.51
2023-02-27T04:58:12.299Z,16.47
2023-02-27T05:00:38.884Z,16.47
2023-02-27T05:03:05.442Z,16.46
2023-02-27T05:05:32.029Z,16.43
2023-02-27T05:07:58.428Z,16.43
2023-02-27T05:10:24.861Z,16.43
2023-02-27T05:12:51.636Z,16.43
2023-02-27T05:15:18.038Z,16.41
2023-02-27T05:17:44.687Z,16.42
2023-02-27T05:20:11.139Z,16.36
2023-02-27T05:22:37.556Z,16.36
2023-02-27T05:25:03.980Z,16.40
2023-02-27T05:27:30.434Z,16.34
2023-02-27T05:29:56.769Z,16.34
2023-02-27T05:32:23.301Z,16.30
2023-02-27T05:34:49.948Z,16.30
2023-02-27T05:37:16.692Z,16.30
2023-02-27T05:39:43.117Z,16.27
2023-02-27T05:42:09.456Z,16.23
2023-02-27T05:44:35.852Z,16.28
2023-02-27T05:47:02.442Z,16.25
2023-02-27T05:49:29.396Z,16.22
2023-02-27T05:51:57.163Z,16.23
2023-02-27T05:54:24.313Z,16.19
2023-02-27T05:56:50.721Z,16.21
2023-02-27T05:59:17.762Z,16.18
2023-02-27T06:01:46.215Z,16.16
2023-02-27T06:04:12.743Z,16.16
2023-02-27T06:06:39.546Z,16.15
2023-02-27T06:09:06.572Z,16.14
2023-02-27T06:11:33.343Z,16.17
2023-02-27T06:13:59.720Z,16.10
2023-02-27T06:16:26.611Z,16.10
2023-02-27T06:18:53.776Z,16.09
2023-02-27T06:21:20.410Z,16.09
2023-02-27T06:23:46.845Z,16.07
2023-02-27T06:26:13.468Z,16.04
2023-02-27T06:28:39.948Z,16.03
2023-02-27T06:31:06.781Z,15.64
2023-02-27T06:33:33.109Z,15.48
2023-02-27T06:35:59.632Z,15.53
2023-02-27T06:38:26.055Z,15.60
2023-02-27T06:40:52.407Z,15.64
2023-02-27T06:43:19.072Z,15.66
2023-02-27T06:45:45.338Z,15.71
2023-02-27T06:48:11.832Z,15.75
2023-02-27T06:50:38.608Z,15.75
2023-02-27T06:53:05.649Z,15.76
2023-02-27T06:55:31.988Z,15.76
2023-02-27T06:57:58.550Z,15.79
2023-02-27T07:00:25.417Z,15.80
2023-02-27T07:02:51.774Z,15.77
2023-02-27T07:05:18.157Z,15.79
2023-02-27T07:07:45.426Z,15.78
2023-02-27T07:10:11.930Z,15.78
2023-02-27T07:12:38.489Z,15.79
2023-02-27T07:15:05.162Z,15.76
2023-02-27T07:17:31.493Z,15.73
2023-02-27T07:19:58.034Z,15.72
2023-02-27T07:22:24.335Z,15.76
2023-02-27T07:24:50.633Z,15.63
2023-02-27T07:27:16.961Z,15.52
2023-02-27T07:29:43.438Z,15.51
2023-02-27T07:32:09.911Z,15.49
2023-02-27T07:34:36.331Z,15.50
2023-02-27T07:37:03.037Z,15.52
2023-02-27T07:39:29.710Z,15.54
2023-02-27T07:41:56.074Z,15.56
2023-02-27T07:44:22.447Z,15.56
2023-02-27T07:46:49.097Z,15.57
2023-02-27T07:49:15.453Z,15.57
2023-02-27T07:51:41.950Z,15.53
2023-02-27T07:54:08.372Z,15.57
2023-02-27T07:56:35.209Z,15.54
2023-02-27T07:59:01.551Z,15.51
2023-02-27T08:01:27.990Z,15.55
2023-02-27T08:03:54.306Z,15.54
2023-02-27T08:06:20.589Z,15.53
2023-02-27T08:08:47.202Z,15.54
2023-02-27T08:11:13.666Z,15.55
2023-02-27T08:13:59.532Z,15.55
2023-02-27T08:16:26.969Z,15.56
2023-02-27T08:18:53.660Z,15.53
2023-02-27T08:21:20.018Z,15.50
2023-02-27T08:23:46.563Z,15.50
2023-02-27T08:26:12.911Z,15.45
2023-02-27T08:28:39.388Z,15.45
2023-02-27T08:31:05.706Z,15.41
2023-02-27T08:33:32.306Z,15.41
2023-02-27T08:35:58.726Z,15.40
2023-02-27T08:38:26.454Z,15.39
2023-02-27T08:40:52.897Z,15.38
2023-02-27T08:43:19.226Z,15.37
2023-02-27T08:45:45.727Z,15.37
2023-02-27T08:48:12.303Z,15.35
2023-02-27T08:50:38.674Z,15.33
2023-02-27T08:53:05.089Z,15.30
2023-02-27T08:55:31.576Z,15.31
2023-02-27T08:57:58.191Z,15.28
2023-02-27T09:00:24.954Z,15.26
2023-02-27T09:02:51.528Z,15.24
2023-02-27T09:05:17.997Z,15.25
2023-02-27T09:07:44.401Z,15.26
2023-02-27T09:10:11.136Z,15.25
2023-02-27T09:12:37.538Z,15.24
2023-02-27T09:15:04.401Z,15.23
2023-02-27T09:17:30.842Z,15.21
2023-02-27T09:19:57.578Z,15.19
2023-02-27T09:22:23.968Z,15.20
2023-02-27T09:24:50.395Z,15.20
2023-02-27T09:27:16.710Z,15.21
2023-02-27T09:29:43.352Z,15.16
2023-02-27T09:32:09.858Z,15.18
2023-02-27T09:34:36.927Z,15.18
2023-02-27T09:37:03.314Z,15.17
2023-02-27T09:39:29.983Z,15.16
2023-02-27T09:41:56.951Z,15.17
2023-02-27T09:44:36.468Z,15.17
2023-02-27T09:47:10.042Z,15.17
2023-02-27T09:49:36.984Z,15.18
2023-02-27T09:52:03.400Z,15.16
2023-02-27T09:54:29.739Z,15.17
2023-02-27T09:56:56.246Z,15.16
2023-02-27T09:59:22.659Z,15.17
2023-02-27T10:01:49.292Z,15.16
2023-02-27T10:04:15.711Z,15.16
2023-02-27T10:06:42.112Z,15.15
2023-02-27T10:09:08.460Z,15.14
2023-02-27T10:11:34.986Z,15.14
2023-02-27T10:14:01.700Z,15.15
2023-02-27T10:16:28.353Z,15.14
2023-02-27T10:18:55.045Z,15.14
2023-02-27T10:21:21.467Z,15.15
2023-02-27T10:23:48.517Z,15.14
2023-02-27T10:26:14.942Z,15.13
2023-02-27T10:28:41.773Z,15.13
2023-02-27T10:31:08.326Z,15.13
2023-02-27T10:33:34.803Z,15.12
2023-02-27T10:36:03.106Z,15.12
2023-02-27T10:38:30.315Z,15.12
2023-02-27T10:40:56.690Z,15.11
2023-02-27T10:43:23.069Z,15.12
2023-02-27T10:45:49.439Z,15.10
2023-02-27T10:48:16.316Z,15.11
2023-02-27T10:50:42.674Z,15.10
2023-02-27T10:53:09.172Z,15.09
2023-02-27T10:55:35.556Z,15.09
2023-02-27T10:58:01.962Z,15.11
2023-02-27T11:00:28.690Z,15.10
2023-02-27T11:02:55.586Z,15.10
2023-02-27T11:05:22.019Z,15.09
2023-02-27T11:07:48.393Z,15.09
2023-02-27T11:10:14.723Z,15.09
2023-02-27T11:12:41.463Z,15.09
2023-02-27T11:15:07.822Z,15.08
2023-02-27T11:17:34.608Z,15.08
2023-02-27T11:20:01.801Z,15.09
2023-02-27T11:22:28.244Z,15.09
2023-02-27T11:24:54.690Z,15.09
2023-02-27T11:27:21.409Z,15.07
2023-02-27T11:29:47.826Z,15.09
2023-02-27T11:32:14.328Z,15.08
2023-02-27T11:34:40.786Z,15.08
2023-02-27T11:37:07.155Z,15.07
2023-02-27T11:39:34.015Z,15.06
2023-02-27T11:42:00.575Z,15.06
2023-02-27T11:44:50.166Z,15.07
2023-02-27T11:47:13.839Z,15.07
2023-02-27T11:49:40.502Z,15.08
2023-02-27T11:52:07.275Z,15.08
2023-02-27T11:54:33.610Z,15.08
2023-02-27T11:56:59.914Z,15.09
2023-02-27T11:59:26.318Z,15.11
2023-02-27T12:01:52.884Z,15.10
2023-02-27T12:04:19.311Z,15.09
2023-02-27T12:06:45.704Z,15.08
2023-02-27T12:09:12.078Z,15.11
2023-02-27T12:11:38.585Z,15.12
2023-02-27T12:14:05.115Z,15.12
2023-02-27T12:16:33.041Z,15.08
2023-02-27T12:18:59.857Z,15.11
2023-02-27T12:21:26.261Z,15.13
2023-02-27T12:23:52.673Z,15.12
2023-02-27T12:26:19.174Z,15.15
2023-02-27T12:28:45.486Z,15.13
2023-02-27T12:31:11.871Z,15.09
2023-02-27T12:33:38.764Z,15.05
2023-02-27T12:36:05.488Z,15.03
2023-02-27T12:38:31.891Z,15.01
2023-02-27T12:40:58.253Z,14.99
2023-02-27T12:43:24.634Z,14.99
2023-02-27T12:45:51.079Z,14.98
2023-02-27T12:48:17.468Z,14.96
2023-02-27T12:50:43.949Z,14.97
2023-02-27T12:53:10.421Z,14.96
2023-02-27T12:55:36.841Z,14.96
2023-02-27T12:58:03.812Z,14.96
2023-02-27T13:00:30.690Z,14.94
2023-02-27T13:02:57.539Z,14.95
2023-02-27T13:05:24.011Z,14.95
2023-02-27T13:07:50.476Z,14.94
2023-02-27T13:10:17.640Z,14.94
2023-02-27T13:12:44.262Z,14.94
2023-02-27T13:15:10.805Z,14.93
2023-02-27T13:17:37.322Z,14.93
2023-02-27T13:20:03.735Z,14.91
2023-02-27T13:22:30.486Z,14.88
2023-02-27T13:24:56.844Z,14.86
2023-02-27T13:27:23.221Z,14.87
2023-02-27T13:29:49.619Z,14.87
2023-02-27T13:32:16.079Z,14.89
2023-02-27T13:34:42.830Z,14.88
2023-02-27T13:37:09.422Z,14.90
2023-02-27T13:39:35.869Z,14.89
2023-02-27T13:42:02.233Z,14.90
2023-02-27T13:44:29.400Z,14.92
2023-02-27T13:46:55.806Z,14.92
2023-02-27T13:49:29.334Z,14.95
2023-02-27T13:51:56.070Z,14.95
2023-02-27T13:54:22.591Z,14.93
2023-02-27T13:56:49.580Z,14.95
2023-02-27T13:59:16.131Z,14.94
2023-02-27T14:01:42.743Z,14.93
2023-02-27T14:04:09.210Z,14.93
2023-02-27T14:06:35.572Z,14.93
2023-02-27T14:09:14.517Z,14.92
2023-02-27T14:11:41.300Z,14.92
2023-02-27T14:14:07.748Z,14.92
2023-02-27T14:16:34.252Z,14.92
2023-02-27T14:19:00.627Z,14.91
2023-02-27T14:21:27.359Z,14.91
2023-02-27T14:23:53.958Z,14.90
2023-02-27T14:26:20.735Z,14.89
2023-02-27T14:28:47.163Z,14.89
2023-02-27T14:31:13.755Z,14.88
2023-02-27T14:33:40.981Z,14.86
2023-02-27T14:36:07.934Z,14.86
2023-02-27T14:38:34.357Z,14.87
2023-02-27T14:41:00.947Z,14.87
2023-02-27T14:43:27.441Z,14.85
2023-02-27T14:45:53.914Z,14.84
2023-02-27T14:48:20.596Z,14.84
2023-02-27T14:50:47.040Z,14.85
2023-02-27T14:53:13.544Z,14.84
2023-02-27T14:55:39.916Z,14.83
2023-02-27T14:58:06.356Z,14.83
2023-02-27T15:00:32.944Z,14.84
2023-02-27T15:02:59.429Z,14.83
2023-02-27T15:05:25.766Z,14.82
2023-02-27T15:07:52.188Z,14.83
2023-02-27T15:10:18.577Z,14.83
2023-02-27T15:12:45.003Z,14.83
2023-02-27T15:15:11.432Z,14.82
2023-02-27T15:17:38.101Z,14.82
2023-02-27T15:20:04.536Z,14.82
2023-02-27T15:22:38.670Z,14.80
2023-02-27T15:25:05.774Z,14.81
2023-02-27T15:27:32.457Z,14.81
2023-02-27T15:29:59.210Z,14.81
2023-02-27T15:32:25.931Z,14.82
2023-02-27T15:34:52.526Z,14.81
2023-02-27T15:37:19.442Z,14.82
2023-02-27T15:39:47.031Z,14.82
2023-02-27T15:42:13.481Z,14.83
2023-02-27T15:44:39.930Z,14.85
2023-02-27T15:47:06.511Z,14.84
2023-02-27T15:49:32.942Z,14.88
2023-02-27T15:51:59.342Z,14.88
2023-02-27T15:54:25.692Z,14.87
2023-02-27T15:56:52.039Z,14.91
2023-02-27T15:59:18.487Z,14.92
2023-02-27T16:01:44.776Z,14.88
2023-02-27T16:04:11.463Z,14.91
2023-02-27T16:06:38.568Z,14.92
2023-02-27T16:09:04.911Z,14.92
2023-02-27T16:11:31.352Z,14.91
2023-02-27T16:13:57.704Z,14.89
2023-02-27T16:16:24.262Z,14.91
2023-02-27T16:18:51.012Z,14.90
2023-02-27T16:21:17.418Z,14.90
2023-02-27T16:23:44.232Z,14.91
2023-02-27T16:26:10.803Z,14.89
2023-02-27T16:28:37.191Z,14.86
2023-02-27T16:31:03.599Z,14.88
2023-02-27T16:33:30.238Z,14.87
2023-02-27T16:35:56.741Z,14.87
2023-02-27T16:38:23.161Z,14.85
2023-02-27T16:40:49.769Z,14.84
2023-02-27T16:43:16.611Z,14.83
2023-02-27T16:45:43.024Z,14.82
2023-02-27T16:48:09.971Z,14.80
2023-02-27T16:50:36.476Z,14.78
2023-02-27T16:53:03.036Z,14.76
2023-02-27T16:55:29.388Z,14.73
2023-02-27T16:57:55.937Z,14.72
2023-02-27T17:00:22.664Z,14.70
2023-02-27T17:02:49.516Z,14.69
2023-02-27T17:05:15.939Z,14.68
2023-02-27T17:07:42.755Z,14.68
2023-02-27T17:10:09.412Z,14.65
2023-02-27T17:12:35.870Z,14.63
2023-02-27T17:15:02.351Z,14.63
2023-02-27T17:17:28.652Z,14.63
2023-02-27T17:19:55.626Z,14.63
2023-02-27T17:22:21.925Z,14.61
2023-02-27T17:24:48.297Z,14.61
2023-02-27T17:27:15.436Z,14.60
2023-02-27T17:29:41.777Z,14.60
2023-02-27T17:32:08.335Z,14.59
2023-02-27T17:34:34.817Z,14.60
2023-02-27T17:37:01.822Z,14.60
2023-02-27T17:39:28.284Z,14.59
2023-02-27T17:41:54.821Z,14.59
2023-02-27T17:44:21.224Z,14.58
2023-02-27T17:46:47.874Z,14.57
2023-02-27T17:49:14.277Z,14.57
2023-02-27T17:51:40.934Z,14.59
2023-02-27T17:54:07.258Z,14.56
2023-02-27T17:56:36.287Z,14.56
2023-02-27T17:59:03.106Z,14.56
2023-02-27T18:01:29.610Z,14.55
2023-02-27T18:03:56.051Z,14.55
2023-02-27T18:06:22.527Z,14.53
2023-02-27T18:08:49.569Z,14.54
2023-02-27T18:11:16.219Z,14.52
2023-02-27T18:13:42.555Z,14.53
2023-02-27T18:16:09.275Z,14.53
2023-02-27T18:18:35.690Z,14.51
2023-02-27T18:21:02.469Z,14.51
2023-02-27T18:23:28.939Z,14.51
2023-02-27T18:25:55.733Z,14.51
2023-02-27T18:28:22.398Z,14.51
2023-02-27T18:30:49.634Z,14.50
2023-02-27T18:33:16.606Z,14.49
2023-02-27T18:35:42.980Z,14.48
2023-02-27T18:38:09.421Z,14.48
2023-02-27T18:40:35.922Z,14.48
2023-02-27T18:43:02.731Z,14.48
2023-02-27T18:45:29.190Z,14.47
2023-02-27T18:47:55.682Z,14.46
2023-02-27T18:50:22.517Z,14.45
2023-02-27T18:52:49.556Z,14.45
2023-02-27T18:55:15.986Z,14.45
2023-02-27T18:57:42.509Z,14.43
2023-02-27T19:00:09.035Z,14.42
2023-02-27T19:02:35.505Z,14.43
2023-02-27T19:05:01.907Z,14.44
2023-02-27T19:07:28.336Z,14.43
2023-02-27T19:09:55.517Z,14.40
2023-02-27T19:12:22.042Z,14.41
2023-02-27T19:14:49.110Z,14.40
2023-02-27T19:17:15.470Z,14.39
2023-02-27T19:19:41.888Z,14.38
2023-02-27T19:22:08.242Z,14.36
2023-02-27T19:24:34.567Z,14.36
2023-02-27T19:27:00.957Z,14.36
2023-02-27T19:29:27.746Z,14.36
2023-02-27T19:31:54.260Z,14.36
2023-02-27T19:34:20.671Z,14.37
2023-02-27T19:36:47.115Z,14.37
2023-02-27T19:39:13.433Z,14.39
2023-02-27T19:41:39.839Z,14.36
2023-02-27T19:44:06.198Z,14.35
2023-02-27T19:46:32.943Z,14.34
2023-02-27T19:48:59.445Z,14.33
2023-02-27T19:51:25.840Z,14.32
2023-02-27T19:53:52.445Z,14.33
2023-02-27T19:56:19.309Z,14.32
2023-02-27T19:58:45.670Z,14.30
2023-02-27T20:01:12.073Z,14.29
2023-02-27T20:03:39.126Z,14.27
2023-02-27T20:06:05.951Z,14.28
2023-02-27T20:08:32.459Z,14.26
2023-02-27T20:10:59.296Z,14.27
2023-02-27T20:13:26.037Z,14.26
2023-02-27T20:15:52.438Z,14.26
2023-02-27T20:18:19.354Z,14.27
2023-02-27T20:20:45.760Z,14.25
2023-02-27T20:23:12.090Z,14.25
2023-02-27T20:25:38.538Z,14.24
2023-02-27T20:28:05.283Z,14.23
2023-02-27T20:30:32.477Z,14.24
2023-02-27T20:32:59.098Z,14.25
2023-02-27T20:35:25.626Z,14.23
2023-02-27T20:37:52.142Z,14.22
2023-02-27T20:40:18.481Z,14.22
2023-02-27T20:42:44.931Z,14.21
2023-02-27T20:45:11.352Z,14.21
2023-02-27T20:47:38.385Z,14.21
2023-02-27T20:50:04.869Z,14.21
2023-02-27T20:52:31.231Z,14.19
2023-02-27T20:54:58.014Z,14.18
2023-02-27T20:57:24.885Z,14.17
2023-02-27T20:59:51.315Z,14.18
2023-02-27T21:02:18.176Z,14.18
2023-02-27T21:04:45.092Z,14.17
2023-02-27T21:07:11.498Z,14.17
2023-02-27T21:09:37.869Z,14.16
2023-02-27T21:12:04.283Z,14.16
2023-02-27T21:14:31.314Z,14.15
2023-02-27T21:16:58.050Z,14.15
2023-02-27T21:19:25.200Z,14.15
2023-02-27T21:21:51.519Z,14.14
2023-02-27T21:24:17.871Z,14.12
2023-02-27T21:26:44.312Z,14.13
2023-02-27T21:29:10.674Z,14.11
2023-02-27T21:31:37.478Z,14.14
2023-02-27T21:34:04.421Z,14.12
2023-02-27T21:36:30.789Z,14.09
2023-02-27T21:38:57.218Z,14.11
2023-02-27T21:41:23.656Z,14.09
2023-02-27T21:43:50.110Z,14.09
2023-02-27T21:46:16.607Z,14.10
2023-02-27T21:48:43.638Z,14.07
2023-02-27T21:51:10.099Z,14.08
2023-02-27T21:53:36.915Z,14.07
2023-02-27T21:56:03.280Z,14.07
2023-02-27T21:58:29.662Z,14.04
2023-02-27T22:00:56.031Z,14.05
2023-02-27T22:03:22.467Z,14.06
2023-02-27T22:05:48.782Z,14.04
2023-02-27T22:08:15.137Z,14.04
2023-02-27T22:10:41.779Z,14.02
2023-02-27T22:13:08.884Z,14.02
2023-02-27T22:15:35.632Z,14.03
2023-02-27T22:18:03.911Z,14.05
2023-02-27T22:20:31.278Z,14.02
2023-02-27T22:22:57.830Z,14.02
2023-02-27T22:25:24.234Z,14.01
2023-02-27T22:27:51.269Z,14.02
2023-02-27T22:30:17.757Z,14.00
2023-02-27T22:32:44.152Z,14.00
2023-02-27T22:35:10.770Z,13.99
2023-02-27T22:37:37.543Z,14.00
2023-02-27T22:40:03.889Z,13.98
2023-02-27T22:42:30.293Z,13.98
2023-02-27T22:44:56.743Z,13.97
2023-02-27T22:47:23.339Z,13.98
2023-02-27T22:49:50.044Z,13.96
2023-02-27T22:52:16.543Z,13.97
2023-02-27T22:54:43.067Z,13.96
2023-02-27T22:57:10.019Z,13.95
2023-02-27T22:59:36.534Z,13.96
2023-02-27T23:02:02.969Z,13.96
2023-02-27T23:04:30.040Z,13.94
2023-02-27T23:06:56.472Z,13.93
2023-02-27T23:09:22.940Z,13.92
2023-02-27T23:11:49.601Z,13.92
2023-02-27T23:14:17.236Z,13.92
2023-02-27T23:16:45.316Z,13.91
2023-02-27T23:19:11.777Z,13.92
2023-02-27T23:21:38.183Z,13.90
2023-02-27T23:24:04.611Z,13.90
2023-02-27T23:26:31.090Z,13.89
2023-02-27T23:28:57.419Z,13.91
2023-02-27T23:31:23.866Z,13.89
2023-02-27T23:33:50.246Z,13.88
2023-02-27T23:36:16.597Z,13.88
2023-02-27T23:38:43.105Z,13.87
2023-02-27T23:41:09.508Z,13.88
2023-02-27T23:43:36.047Z,13.88
2023-02-27T23:46:02.482Z,13.87
2023-02-27T23:48:28.923Z,13.85
2023-02-27T23:50:55.346Z,13.88
2023-02-27T23:53:21.832Z,13.84
2023-02-27T23:55:48.174Z,13.85
2023-02-27T23:58:14.699Z,13.85
